sensor_id;sensor_type;location;lat;lon;timestamp;P1;durP1;ratioP1;P2;durP2;ratioP2
72301;SDS011;60235;52.234;5.186;2022-12-05T00:01:16;41.08;;;14.93;;
72301;SDS011;60235;52.234;5.186;2022-12-05T00:03:42;35.83;;;12.52;;
72301;SDS011;60235;52.234;5.186;2022-12-05T00:06:08;43.22;;;14.20;;
72301;SDS011;60235;52.234;5.186;2022-12-05T00:08:34;38.75;;;13.82;;
72301;SDS011;60235;52.234;5.186;2022-12-05T00:11:00;37.47;;;13.70;;
72301;SDS011;60235;52.234;5.186;2022-12-05T00:13:26;34.05;;;11.90;;
72301;SDS011;60235;52.234;5.186;2022-12-05T00:15:52;38.95;;;13.65;;
72301;SDS011;60235;52.234;5.186;2022-12-05T00:18:18;35.13;;;13.38;;
72301;SDS011;60235;52.234;5.186;2022-12-05T00:20:44;37.58;;;13.18;;
72301;SDS011;60235;52.234;5.186;2022-12-05T00:23:11;36.25;;;12.55;;
72301;SDS011;60235;52.234;5.186;2022-12-05T00:25:37;31.33;;;11.70;;
72301;SDS011;60235;52.234;5.186;2022-12-05T00:28:03;38.25;;;13.30;;
72301;SDS011;60235;52.234;5.186;2022-12-05T00:30:29;34.97;;;12.77;;
72301;SDS011;60235;52.234;5.186;2022-12-05T00:32:55;36.08;;;12.93;;
72301;SDS011;60235;52.234;5.186;2022-12-05T00:35:21;34.30;;;13.32;;
72301;SDS011;60235;52.234;5.186;2022-12-05T00:37:47;33.00;;;12.68;;
72301;SDS011;60235;52.234;5.186;2022-12-05T00:40:13;37.70;;;12.82;;
72301;SDS011;60235;52.234;5.186;2022-12-05T00:42:39;33.95;;;12.55;;
72301;SDS011;60235;52.234;5.186;2022-12-05T00:45:05;33.60;;;11.88;;
72301;SDS011;60235;52.234;5.186;2022-12-05T00:47:34;30.55;;;10.98;;
72301;SDS011;60235;52.234;5.186;2022-12-05T00:50:01;37.58;;;12.80;;
72301;SDS011;60235;52.234;5.186;2022-12-05T00:52:27;39.45;;;12.98;;
72301;SDS011;60235;52.234;5.186;2022-12-05T00:54:53;37.08;;;13.82;;
72301;SDS011;60235;52.234;5.186;2022-12-05T00:57:19;35.97;;;12.68;;
72301;SDS011;60235;52.234;5.186;2022-12-05T00:59:45;36.55;;;12.13;;
72301;SDS011;60235;52.234;5.186;2022-12-05T01:02:11;31.83;;;12.13;;
72301;SDS011;60235;52.234;5.186;2022-12-05T01:04:37;34.45;;;13.55;;
72301;SDS011;60235;52.234;5.186;2022-12-05T01:07:03;36.42;;;12.77;;
72301;SDS011;60235;52.234;5.186;2022-12-05T01:09:29;36.75;;;13.80;;
72301;SDS011;60235;52.234;5.186;2022-12-05T01:11:55;36.20;;;12.98;;
72301;SDS011;60235;52.234;5.186;2022-12-05T01:14:22;41.70;;;14.35;;
72301;SDS011;60235;52.234;5.186;2022-12-05T01:16:49;36.83;;;14.07;;
72301;SDS011;60235;52.234;5.186;2022-12-05T01:19:17;36.00;;;12.40;;
72301;SDS011;60235;52.234;5.186;2022-12-05T01:21:43;36.75;;;13.55;;
72301;SDS011;60235;52.234;5.186;2022-12-05T01:24:10;33.70;;;14.27;;
72301;SDS011;60235;52.234;5.186;2022-12-05T01:26:36;36.60;;;12.88;;
72301;SDS011;60235;52.234;5.186;2022-12-05T01:29:02;39.05;;;13.63;;
72301;SDS011;60235;52.234;5.186;2022-12-05T01:31:30;44.55;;;14.45;;
72301;SDS011;60235;52.234;5.186;2022-12-05T01:33:57;34.53;;;12.77;;
72301;SDS011;60235;52.234;5.186;2022-12-05T01:36:24;41.60;;;14.98;;
72301;SDS011;60235;52.234;5.186;2022-12-05T01:38:51;40.20;;;14.70;;
72301;SDS011;60235;52.234;5.186;2022-12-05T01:41:21;39.75;;;13.30;;
72301;SDS011;60235;52.234;5.186;2022-12-05T01:44:04;43.25;;;14.77;;
72301;SDS011;60235;52.234;5.186;2022-12-05T01:46:52;39.70;;;13.13;;
72301;SDS011;60235;52.234;5.186;2022-12-05T01:51:50;36.53;;;13.43;;
72301;SDS011;60235;52.234;5.186;2022-12-05T01:54:17;42.03;;;14.45;;
72301;SDS011;60235;52.234;5.186;2022-12-05T01:56:47;37.63;;;13.02;;
72301;SDS011;60235;52.234;5.186;2022-12-05T01:59:14;34.25;;;13.52;;
72301;SDS011;60235;52.234;5.186;2022-12-05T02:01:40;39.03;;;12.85;;
72301;SDS011;60235;52.234;5.186;2022-12-05T02:04:06;41.83;;;15.02;;
72301;SDS011;60235;52.234;5.186;2022-12-05T02:06:33;38.05;;;13.82;;
72301;SDS011;60235;52.234;5.186;2022-12-05T02:08:59;36.10;;;12.30;;
72301;SDS011;60235;52.234;5.186;2022-12-05T02:11:26;40.80;;;16.02;;
72301;SDS011;60235;52.234;5.186;2022-12-05T02:19:24;42.67;;;13.98;;
72301;SDS011;60235;52.234;5.186;2022-12-05T02:34:54;39.75;;;14.43;;
72301;SDS011;60235;52.234;5.186;2022-12-05T02:37:30;39.97;;;13.23;;
72301;SDS011;60235;52.234;5.186;2022-12-05T02:40:14;37.53;;;12.13;;
72301;SDS011;60235;52.234;5.186;2022-12-05T02:42:48;41.92;;;13.15;;
72301;SDS011;60235;52.234;5.186;2022-12-05T02:45:15;36.17;;;12.82;;
72301;SDS011;60235;52.234;5.186;2022-12-05T02:47:44;38.72;;;14.52;;
72301;SDS011;60235;52.234;5.186;2022-12-05T02:50:11;35.40;;;12.73;;
72301;SDS011;60235;52.234;5.186;2022-12-05T02:52:39;37.33;;;12.50;;
72301;SDS011;60235;52.234;5.186;2022-12-05T02:55:06;39.63;;;13.40;;
72301;SDS011;60235;52.234;5.186;2022-12-05T02:57:33;39.97;;;13.57;;
72301;SDS011;60235;52.234;5.186;2022-12-05T02:59:59;35.33;;;12.85;;
72301;SDS011;60235;52.234;5.186;2022-12-05T03:02:26;36.17;;;12.57;;
72301;SDS011;60235;52.234;5.186;2022-12-05T03:04:54;37.55;;;12.70;;
72301;SDS011;60235;52.234;5.186;2022-12-05T03:07:20;36.53;;;13.40;;
72301;SDS011;60235;52.234;5.186;2022-12-05T03:09:53;35.50;;;13.60;;
72301;SDS011;60235;52.234;5.186;2022-12-05T03:12:22;30.98;;;11.48;;
72301;SDS011;60235;52.234;5.186;2022-12-05T03:14:52;36.42;;;12.73;;
72301;SDS011;60235;52.234;5.186;2022-12-05T03:17:24;35.85;;;11.60;;
72301;SDS011;60235;52.234;5.186;2022-12-05T03:22:43;35.20;;;11.85;;
72301;SDS011;60235;52.234;5.186;2022-12-05T03:25:11;33.22;;;11.32;;
72301;SDS011;60235;52.234;5.186;2022-12-05T03:30:13;33.05;;;12.68;;
72301;SDS011;60235;52.234;5.186;2022-12-05T03:38:28;32.20;;;11.68;;
72301;SDS011;60235;52.234;5.186;2022-12-05T03:40:56;32.58;;;11.75;;
72301;SDS011;60235;52.234;5.186;2022-12-05T03:46:15;37.60;;;13.35;;
72301;SDS011;60235;52.234;5.186;2022-12-05T03:51:15;34.05;;;11.52;;
72301;SDS011;60235;52.234;5.186;2022-12-05T03:53:53;31.33;;;11.23;;
72301;SDS011;60235;52.234;5.186;2022-12-05T03:56:22;29.50;;;11.18;;
72301;SDS011;60235;52.234;5.186;2022-12-05T03:58:54;34.03;;;12.10;;
72301;SDS011;60235;52.234;5.186;2022-12-05T04:01:22;30.30;;;11.68;;
72301;SDS011;60235;52.234;5.186;2022-12-05T04:03:51;29.75;;;11.10;;
72301;SDS011;60235;52.234;5.186;2022-12-05T04:06:23;29.58;;;10.98;;
72301;SDS011;60235;52.234;5.186;2022-12-05T04:08:52;33.97;;;12.05;;
72301;SDS011;60235;52.234;5.186;2022-12-05T04:11:20;29.85;;;11.73;;
72301;SDS011;60235;52.234;5.186;2022-12-05T04:13:51;30.42;;;12.20;;
72301;SDS011;60235;52.234;5.186;2022-12-05T04:16:28;36.25;;;12.32;;
72301;SDS011;60235;52.234;5.186;2022-12-05T04:19:23;38.22;;;12.70;;
72301;SDS011;60235;52.234;5.186;2022-12-05T04:21:51;37.03;;;13.55;;
72301;SDS011;60235;52.234;5.186;2022-12-05T04:24:20;32.95;;;13.15;;
72301;SDS011;60235;52.234;5.186;2022-12-05T04:27:27;34.50;;;12.52;;
72301;SDS011;60235;52.234;5.186;2022-12-05T04:32:34;35.55;;;12.80;;
72301;SDS011;60235;52.234;5.186;2022-12-05T04:35:02;34.42;;;11.88;;
72301;SDS011;60235;52.234;5.186;2022-12-05T04:37:30;35.15;;;11.68;;
72301;SDS011;60235;52.234;5.186;2022-12-05T04:39:58;30.98;;;12.23;;
72301;SDS011;60235;52.234;5.186;2022-12-05T04:42:26;32.28;;;12.50;;
72301;SDS011;60235;52.234;5.186;2022-12-05T04:44:56;34.50;;;12.48;;
72301;SDS011;60235;52.234;5.186;2022-12-05T04:47:26;34.85;;;12.02;;
72301;SDS011;60235;52.234;5.186;2022-12-05T04:49:53;38.03;;;12.38;;
72301;SDS011;60235;52.234;5.186;2022-12-05T04:52:20;31.15;;;11.98;;
72301;SDS011;60235;52.234;5.186;2022-12-05T04:54:47;34.75;;;12.70;;
72301;SDS011;60235;52.234;5.186;2022-12-05T04:57:25;35.47;;;12.80;;
72301;SDS011;60235;52.234;5.186;2022-12-05T04:59:51;36.35;;;13.40;;
72301;SDS011;60235;52.234;5.186;2022-12-05T05:02:19;31.50;;;11.93;;
72301;SDS011;60235;52.234;5.186;2022-12-05T05:04:46;36.33;;;12.88;;
72301;SDS011;60235;52.234;5.186;2022-12-05T05:07:15;34.97;;;11.85;;
72301;SDS011;60235;52.234;5.186;2022-12-05T05:09:41;36.38;;;13.48;;
72301;SDS011;60235;52.234;5.186;2022-12-05T05:12:09;36.25;;;12.75;;
72301;SDS011;60235;52.234;5.186;2022-12-05T05:14:35;34.08;;;12.63;;
72301;SDS011;60235;52.234;5.186;2022-12-05T05:17:01;31.73;;;12.25;;
72301;SDS011;60235;52.234;5.186;2022-12-05T05:19:27;37.28;;;12.73;;
72301;SDS011;60235;52.234;5.186;2022-12-05T05:21:53;32.63;;;12.70;;
72301;SDS011;60235;52.234;5.186;2022-12-05T05:24:19;33.20;;;13.48;;
72301;SDS011;60235;52.234;5.186;2022-12-05T05:26:50;39.10;;;13.00;;
72301;SDS011;60235;52.234;5.186;2022-12-05T05:29:16;32.63;;;13.40;;
72301;SDS011;60235;52.234;5.186;2022-12-05T05:31:43;34.50;;;13.00;;
72301;SDS011;60235;52.234;5.186;2022-12-05T05:34:09;35.65;;;12.85;;
72301;SDS011;60235;52.234;5.186;2022-12-05T05:36:36;33.20;;;12.27;;
72301;SDS011;60235;52.234;5.186;2022-12-05T05:39:02;30.00;;;11.68;;
72301;SDS011;60235;52.234;5.186;2022-12-05T05:41:30;35.78;;;12.32;;
72301;SDS011;60235;52.234;5.186;2022-12-05T05:43:56;38.35;;;11.00;;
72301;SDS011;60235;52.234;5.186;2022-12-05T05:46:23;31.17;;;12.30;;
72301;SDS011;60235;52.234;5.186;2022-12-05T05:48:50;34.78;;;11.35;;
72301;SDS011;60235;52.234;5.186;2022-12-05T05:51:16;32.72;;;11.85;;
72301;SDS011;60235;52.234;5.186;2022-12-05T05:53:42;38.35;;;13.15;;
72301;SDS011;60235;52.234;5.186;2022-12-05T05:56:10;31.27;;;11.60;;
72301;SDS011;60235;52.234;5.186;2022-12-05T05:58:36;34.97;;;12.32;;
72301;SDS011;60235;52.234;5.186;2022-12-05T06:01:03;35.22;;;12.82;;
72301;SDS011;60235;52.234;5.186;2022-12-05T06:03:29;39.35;;;12.60;;
72301;SDS011;60235;52.234;5.186;2022-12-05T06:05:59;32.67;;;12.93;;
72301;SDS011;60235;52.234;5.186;2022-12-05T06:08:27;33.30;;;12.40;;
72301;SDS011;60235;52.234;5.186;2022-12-05T06:10:53;36.58;;;12.85;;
72301;SDS011;60235;52.234;5.186;2022-12-05T06:13:19;34.25;;;12.75;;
72301;SDS011;60235;52.234;5.186;2022-12-05T06:15:45;29.38;;;11.95;;
72301;SDS011;60235;52.234;5.186;2022-12-05T06:18:11;36.90;;;11.63;;
72301;SDS011;60235;52.234;5.186;2022-12-05T06:20:37;29.30;;;11.43;;
72301;SDS011;60235;52.234;5.186;2022-12-05T06:23:03;39.17;;;12.95;;
72301;SDS011;60235;52.234;5.186;2022-12-05T06:25:29;32.13;;;12.77;;
72301;SDS011;60235;52.234;5.186;2022-12-05T06:27:55;36.53;;;11.57;;
72301;SDS011;60235;52.234;5.186;2022-12-05T06:30:21;34.75;;;11.57;;
72301;SDS011;60235;52.234;5.186;2022-12-05T06:32:47;33.15;;;11.43;;
72301;SDS011;60235;52.234;5.186;2022-12-05T06:35:13;30.80;;;11.73;;
72301;SDS011;60235;52.234;5.186;2022-12-05T06:37:43;32.03;;;12.13;;
72301;SDS011;60235;52.234;5.186;2022-12-05T06:40:12;37.90;;;12.63;;
72301;SDS011;60235;52.234;5.186;2022-12-05T06:42:39;30.58;;;11.15;;
72301;SDS011;60235;52.234;5.186;2022-12-05T06:45:05;30.48;;;10.52;;
72301;SDS011;60235;52.234;5.186;2022-12-05T06:47:32;30.52;;;10.82;;
72301;SDS011;60235;52.234;5.186;2022-12-05T06:49:57;28.75;;;10.68;;
72301;SDS011;60235;52.234;5.186;2022-12-05T06:52:23;27.55;;;9.88;;
72301;SDS011;60235;52.234;5.186;2022-12-05T06:54:49;23.60;;;9.45;;
72301;SDS011;60235;52.234;5.186;2022-12-05T06:57:16;30.33;;;10.90;;
72301;SDS011;60235;52.234;5.186;2022-12-05T06:59:42;29.55;;;10.60;;
72301;SDS011;60235;52.234;5.186;2022-12-05T07:02:08;26.20;;;9.52;;
72301;SDS011;60235;52.234;5.186;2022-12-05T07:04:34;28.63;;;10.10;;
72301;SDS011;60235;52.234;5.186;2022-12-05T07:07:00;27.27;;;9.80;;
72301;SDS011;60235;52.234;5.186;2022-12-05T07:09:26;23.63;;;9.10;;
72301;SDS011;60235;52.234;5.186;2022-12-05T07:12:12;26.23;;;8.98;;
72301;SDS011;60235;52.234;5.186;2022-12-05T07:14:38;24.40;;;9.15;;
72301;SDS011;60235;52.234;5.186;2022-12-05T07:17:04;23.67;;;9.27;;
72301;SDS011;60235;52.234;5.186;2022-12-05T07:19:30;23.85;;;9.15;;
72301;SDS011;60235;52.234;5.186;2022-12-05T07:21:56;22.27;;;8.85;;
72301;SDS011;60235;52.234;5.186;2022-12-05T07:24:22;20.67;;;8.52;;
72301;SDS011;60235;52.234;5.186;2022-12-05T07:26:48;23.02;;;9.23;;
72301;SDS011;60235;52.234;5.186;2022-12-05T07:29:14;25.42;;;9.93;;
72301;SDS011;60235;52.234;5.186;2022-12-05T07:31:40;24.52;;;9.63;;
72301;SDS011;60235;52.234;5.186;2022-12-05T07:34:06;25.02;;;9.75;;
72301;SDS011;60235;52.234;5.186;2022-12-05T07:36:32;21.58;;;9.07;;
72301;SDS011;60235;52.234;5.186;2022-12-05T07:38:59;22.58;;;8.60;;
72301;SDS011;60235;52.234;5.186;2022-12-05T07:41:26;20.23;;;8.43;;
72301;SDS011;60235;52.234;5.186;2022-12-05T07:43:53;22.08;;;8.55;;
72301;SDS011;60235;52.234;5.186;2022-12-05T07:46:19;19.85;;;8.23;;
72301;SDS011;60235;52.234;5.186;2022-12-05T07:48:48;21.80;;;8.65;;
72301;SDS011;60235;52.234;5.186;2022-12-05T07:51:14;23.13;;;8.10;;
72301;SDS011;60235;52.234;5.186;2022-12-05T07:53:41;21.30;;;8.50;;
72301;SDS011;60235;52.234;5.186;2022-12-05T07:56:08;25.42;;;9.32;;
72301;SDS011;60235;52.234;5.186;2022-12-05T07:58:35;23.08;;;9.43;;
72301;SDS011;60235;52.234;5.186;2022-12-05T08:01:08;24.23;;;9.20;;
72301;SDS011;60235;52.234;5.186;2022-12-05T08:03:35;20.35;;;8.65;;
72301;SDS011;60235;52.234;5.186;2022-12-05T08:06:05;18.30;;;7.97;;
72301;SDS011;60235;52.234;5.186;2022-12-05T08:08:31;19.10;;;7.07;;
72301;SDS011;60235;52.234;5.186;2022-12-05T08:11:01;16.63;;;7.05;;
72301;SDS011;60235;52.234;5.186;2022-12-05T08:13:27;18.92;;;8.18;;
72301;SDS011;60235;52.234;5.186;2022-12-05T08:15:53;16.33;;;7.47;;
72301;SDS011;60235;52.234;5.186;2022-12-05T08:18:19;19.25;;;7.60;;
72301;SDS011;60235;52.234;5.186;2022-12-05T08:20:45;14.43;;;6.65;;
72301;SDS011;60235;52.234;5.186;2022-12-05T08:23:11;17.05;;;7.90;;
72301;SDS011;60235;52.234;5.186;2022-12-05T08:25:37;18.15;;;7.00;;
72301;SDS011;60235;52.234;5.186;2022-12-05T08:28:03;14.65;;;6.72;;
72301;SDS011;60235;52.234;5.186;2022-12-05T08:30:29;15.02;;;6.93;;
72301;SDS011;60235;52.234;5.186;2022-12-05T08:32:55;16.23;;;7.32;;
72301;SDS011;60235;52.234;5.186;2022-12-05T08:35:21;18.55;;;6.68;;
72301;SDS011;60235;52.234;5.186;2022-12-05T08:37:47;14.27;;;6.18;;
72301;SDS011;60235;52.234;5.186;2022-12-05T08:40:13;15.30;;;6.22;;
72301;SDS011;60235;52.234;5.186;2022-12-05T08:42:39;13.05;;;5.82;;
72301;SDS011;60235;52.234;5.186;2022-12-05T08:45:05;12.77;;;5.93;;
72301;SDS011;60235;52.234;5.186;2022-12-05T08:47:31;12.27;;;4.97;;
72301;SDS011;60235;52.234;5.186;2022-12-05T08:49:57;12.80;;;5.43;;
72301;SDS011;60235;52.234;5.186;2022-12-05T08:52:23;14.07;;;6.13;;
72301;SDS011;60235;52.234;5.186;2022-12-05T08:54:50;13.70;;;5.75;;
72301;SDS011;60235;52.234;5.186;2022-12-05T08:57:16;13.82;;;5.90;;
72301;SDS011;60235;52.234;5.186;2022-12-05T08:59:42;11.75;;;5.20;;
72301;SDS011;60235;52.234;5.186;2022-12-05T09:02:09;14.55;;;6.40;;
72301;SDS011;60235;52.234;5.186;2022-12-05T09:04:35;12.23;;;5.13;;
72301;SDS011;60235;52.234;5.186;2022-12-05T09:07:01;14.80;;;5.88;;
72301;SDS011;60235;52.234;5.186;2022-12-05T09:09:27;13.77;;;5.50;;
72301;SDS011;60235;52.234;5.186;2022-12-05T09:11:54;11.32;;;4.88;;
72301;SDS011;60235;52.234;5.186;2022-12-05T09:14:21;10.93;;;5.18;;
72301;SDS011;60235;52.234;5.186;2022-12-05T09:16:48;13.95;;;5.60;;
72301;SDS011;60235;52.234;5.186;2022-12-05T09:19:18;10.90;;;5.10;;
72301;SDS011;60235;52.234;5.186;2022-12-05T09:24:15;10.77;;;4.63;;
72301;SDS011;60235;52.234;5.186;2022-12-05T09:26:41;17.13;;;5.85;;
72301;SDS011;60235;52.234;5.186;2022-12-05T09:29:08;13.38;;;5.63;;
72301;SDS011;60235;52.234;5.186;2022-12-05T09:31:34;12.95;;;5.00;;
72301;SDS011;60235;52.234;5.186;2022-12-05T09:34:01;12.48;;;5.50;;
72301;SDS011;60235;52.234;5.186;2022-12-05T09:36:28;11.38;;;4.80;;
72301;SDS011;60235;52.234;5.186;2022-12-05T09:38:55;11.05;;;4.93;;
72301;SDS011;60235;52.234;5.186;2022-12-05T09:46:57;10.23;;;4.70;;
72301;SDS011;60235;52.234;5.186;2022-12-05T09:51:50;10.57;;;4.20;;
72301;SDS011;60235;52.234;5.186;2022-12-05T09:54:17;9.70;;;3.80;;
72301;SDS011;60235;52.234;5.186;2022-12-05T09:56:43;9.05;;;3.72;;
72301;SDS011;60235;52.234;5.186;2022-12-05T09:59:13;10.02;;;4.18;;
72301;SDS011;60235;52.234;5.186;2022-12-05T10:12:23;9.07;;;3.85;;
72301;SDS011;60235;52.234;5.186;2022-12-05T10:17:38;10.07;;;3.30;;
72301;SDS011;60235;52.234;5.186;2022-12-05T10:20:16;8.38;;;3.55;;
72301;SDS011;60235;52.234;5.186;2022-12-05T10:25:35;8.43;;;3.58;;
72301;SDS011;60235;52.234;5.186;2022-12-05T10:28:05;8.38;;;3.65;;
72301;SDS011;60235;52.234;5.186;2022-12-05T10:30:34;8.95;;;4.05;;
72301;SDS011;60235;52.234;5.186;2022-12-05T10:33:02;9.73;;;3.60;;
72301;SDS011;60235;52.234;5.186;2022-12-05T10:38:02;11.02;;;4.13;;
72301;SDS011;60235;52.234;5.186;2022-12-05T10:40:32;8.90;;;4.00;;
72301;SDS011;60235;52.234;5.186;2022-12-05T10:42:59;9.15;;;3.88;;
72301;SDS011;60235;52.234;5.186;2022-12-05T10:45:25;10.75;;;4.35;;
72301;SDS011;60235;52.234;5.186;2022-12-05T10:47:55;9.95;;;3.78;;
72301;SDS011;60235;52.234;5.186;2022-12-05T10:52:48;9.45;;;3.88;;
72301;SDS011;60235;52.234;5.186;2022-12-05T10:55:15;10.65;;;3.83;;
72301;SDS011;60235;52.234;5.186;2022-12-05T10:57:42;12.90;;;4.55;;
72301;SDS011;60235;52.234;5.186;2022-12-05T11:00:14;11.02;;;3.90;;
72301;SDS011;60235;52.234;5.186;2022-12-05T11:02:41;9.85;;;4.25;;
72301;SDS011;60235;52.234;5.186;2022-12-05T11:05:07;10.38;;;4.05;;
72301;SDS011;60235;52.234;5.186;2022-12-05T11:07:34;9.75;;;4.40;;
72301;SDS011;60235;52.234;5.186;2022-12-05T11:10:02;9.93;;;3.85;;
72301;SDS011;60235;52.234;5.186;2022-12-05T11:15:17;14.98;;;5.18;;
72301;SDS011;60235;52.234;5.186;2022-12-05T11:17:47;20.08;;;4.90;;
72301;SDS011;60235;52.234;5.186;2022-12-05T11:22:42;9.88;;;4.07;;
72301;SDS011;60235;52.234;5.186;2022-12-05T11:27:50;9.93;;;3.72;;
72301;SDS011;60235;52.234;5.186;2022-12-05T11:30:23;10.00;;;3.47;;
72301;SDS011;60235;52.234;5.186;2022-12-05T11:32:54;10.10;;;3.75;;
72301;SDS011;60235;52.234;5.186;2022-12-05T11:35:35;9.10;;;3.35;;
72301;SDS011;60235;52.234;5.186;2022-12-05T11:38:02;8.57;;;3.40;;
72301;SDS011;60235;52.234;5.186;2022-12-05T11:43:10;11.20;;;3.80;;
72301;SDS011;60235;52.234;5.186;2022-12-05T11:53:44;10.65;;;3.97;;
72301;SDS011;60235;52.234;5.186;2022-12-05T11:58:55;12.07;;;3.72;;
72301;SDS011;60235;52.234;5.186;2022-12-05T12:04:35;11.35;;;4.40;;
72301;SDS011;60235;52.234;5.186;2022-12-05T12:07:21;9.57;;;3.60;;
72301;SDS011;60235;52.234;5.186;2022-12-05T12:12:22;11.95;;;3.97;;
72301;SDS011;60235;52.234;5.186;2022-12-05T12:14:57;11.65;;;4.03;;
72301;SDS011;60235;52.234;5.186;2022-12-05T12:17:48;9.43;;;3.33;;
72301;SDS011;60235;52.234;5.186;2022-12-05T12:20:21;15.85;;;3.88;;
72301;SDS011;60235;52.234;5.186;2022-12-05T12:23:13;11.07;;;3.45;;
72301;SDS011;60235;52.234;5.186;2022-12-05T12:28:32;9.88;;;3.72;;
72301;SDS011;60235;52.234;5.186;2022-12-05T12:36:12;10.60;;;3.38;;
72301;SDS011;60235;52.234;5.186;2022-12-05T12:44:01;11.00;;;4.38;;
72301;SDS011;60235;52.234;5.186;2022-12-05T12:46:44;13.40;;;4.45;;
72301;SDS011;60235;52.234;5.186;2022-12-05T12:51:46;10.10;;;4.05;;
72301;SDS011;60235;52.234;5.186;2022-12-05T12:54:20;12.98;;;4.45;;
72301;SDS011;60235;52.234;5.186;2022-12-05T13:04:29;12.13;;;4.88;;
72301;SDS011;60235;52.234;5.186;2022-12-05T13:07:04;15.60;;;5.47;;
72301;SDS011;60235;52.234;5.186;2022-12-05T13:09:41;14.55;;;4.38;;
72301;SDS011;60235;52.234;5.186;2022-12-05T13:12:12;14.02;;;4.65;;
72301;SDS011;60235;52.234;5.186;2022-12-05T13:14:44;11.77;;;4.70;;
72301;SDS011;60235;52.234;5.186;2022-12-05T13:17:14;12.43;;;4.03;;
72301;SDS011;60235;52.234;5.186;2022-12-05T13:19:44;14.15;;;4.78;;
72301;SDS011;60235;52.234;5.186;2022-12-05T13:22:12;12.10;;;4.10;;
72301;SDS011;60235;52.234;5.186;2022-12-05T13:24:39;11.80;;;4.30;;
72301;SDS011;60235;52.234;5.186;2022-12-05T13:27:07;15.55;;;4.60;;
72301;SDS011;60235;52.234;5.186;2022-12-05T13:30:14;11.70;;;4.57;;
72301;SDS011;60235;52.234;5.186;2022-12-05T13:32:28;12.63;;;4.88;;
72301;SDS011;60235;52.234;5.186;2022-12-05T13:34:56;11.27;;;4.32;;
72301;SDS011;60235;52.234;5.186;2022-12-05T13:37:29;13.70;;;4.85;;
72301;SDS011;60235;52.234;5.186;2022-12-05T13:40:24;13.00;;;4.53;;
72301;SDS011;60235;52.234;5.186;2022-12-05T13:43:10;12.73;;;4.28;;
72301;SDS011;60235;52.234;5.186;2022-12-05T13:45:38;12.30;;;3.92;;
72301;SDS011;60235;52.234;5.186;2022-12-05T13:51:01;15.10;;;5.00;;
72301;SDS011;60235;52.234;5.186;2022-12-05T13:53:38;12.90;;;4.88;;
72301;SDS011;60235;52.234;5.186;2022-12-05T14:09:50;11.07;;;4.85;;
72301;SDS011;60235;52.234;5.186;2022-12-05T14:17:21;12.80;;;4.45;;
72301;SDS011;60235;52.234;5.186;2022-12-05T14:19:53;15.35;;;5.00;;
72301;SDS011;60235;52.234;5.186;2022-12-05T14:25:00;12.93;;;4.07;;
72301;SDS011;60235;52.234;5.186;2022-12-05T14:27:39;13.10;;;5.00;;
72301;SDS011;60235;52.234;5.186;2022-12-05T14:32:35;13.90;;;4.72;;
72301;SDS011;60235;52.234;5.186;2022-12-05T14:35:11;10.05;;;4.28;;
72301;SDS011;60235;52.234;5.186;2022-12-05T14:37:39;12.82;;;4.85;;
72301;SDS011;60235;52.234;5.186;2022-12-05T14:42:41;11.20;;;4.15;;
72301;SDS011;60235;52.234;5.186;2022-12-05T14:47:50;13.75;;;4.72;;
72301;SDS011;60235;52.234;5.186;2022-12-05T14:55:40;13.65;;;4.57;;
72301;SDS011;60235;52.234;5.186;2022-12-05T14:58:10;13.43;;;4.82;;
72301;SDS011;60235;52.234;5.186;2022-12-05T15:00:40;12.23;;;4.63;;
72301;SDS011;60235;52.234;5.186;2022-12-05T15:03:07;12.45;;;4.70;;
72301;SDS011;60235;52.234;5.186;2022-12-05T15:05:35;12.70;;;4.18;;
72301;SDS011;60235;52.234;5.186;2022-12-05T15:08:01;13.88;;;4.72;;
72301;SDS011;60235;52.234;5.186;2022-12-05T15:10:32;14.32;;;4.30;;
72301;SDS011;60235;52.234;5.186;2022-12-05T15:13:03;12.43;;;4.43;;
72301;SDS011;60235;52.234;5.186;2022-12-05T15:26:04;11.23;;;4.18;;
72301;SDS011;60235;52.234;5.186;2022-12-05T15:28:30;12.55;;;4.72;;
72301;SDS011;60235;52.234;5.186;2022-12-05T15:30:56;11.65;;;4.63;;
72301;SDS011;60235;52.234;5.186;2022-12-05T15:33:23;13.68;;;4.50;;
72301;SDS011;60235;52.234;5.186;2022-12-05T15:35:50;11.15;;;4.35;;
72301;SDS011;60235;52.234;5.186;2022-12-05T15:38:28;13.45;;;4.93;;
72301;SDS011;60235;52.234;5.186;2022-12-05T15:40:55;11.68;;;4.28;;
72301;SDS011;60235;52.234;5.186;2022-12-05T15:43:31;12.10;;;4.53;;
72301;SDS011;60235;52.234;5.186;2022-12-05T15:46:17;13.25;;;4.80;;
72301;SDS011;60235;52.234;5.186;2022-12-05T15:48:45;14.40;;;4.75;;
72301;SDS011;60235;52.234;5.186;2022-12-05T15:51:11;12.55;;;3.88;;
72301;SDS011;60235;52.234;5.186;2022-12-05T15:53:42;11.98;;;4.50;;
72301;SDS011;60235;52.234;5.186;2022-12-05T15:56:45;13.40;;;4.15;;
72301;SDS011;60235;52.234;5.186;2022-12-05T16:01:29;10.52;;;3.83;;
72301;SDS011;60235;52.234;5.186;2022-12-05T16:06:26;14.07;;;4.00;;
72301;SDS011;60235;52.234;5.186;2022-12-05T16:08:54;15.82;;;4.78;;
72301;SDS011;60235;52.234;5.186;2022-12-05T16:11:21;13.77;;;4.22;;
72301;SDS011;60235;52.234;5.186;2022-12-05T16:13:51;12.60;;;4.00;;
72301;SDS011;60235;52.234;5.186;2022-12-05T16:16:23;9.65;;;3.75;;
72301;SDS011;60235;52.234;5.186;2022-12-05T16:18:53;9.95;;;3.88;;
72301;SDS011;60235;52.234;5.186;2022-12-05T16:21:59;13.05;;;4.28;;
72301;SDS011;60235;52.234;5.186;2022-12-05T16:26:38;13.60;;;4.13;;
72301;SDS011;60235;52.234;5.186;2022-12-05T16:29:05;12.52;;;4.07;;
72301;SDS011;60235;52.234;5.186;2022-12-05T16:31:33;12.45;;;4.00;;
72301;SDS011;60235;52.234;5.186;2022-12-05T16:34:07;11.35;;;4.03;;
72301;SDS011;60235;52.234;5.186;2022-12-05T16:36:44;11.85;;;4.13;;
72301;SDS011;60235;52.234;5.186;2022-12-05T16:39:11;9.60;;;3.30;;
72301;SDS011;60235;52.234;5.186;2022-12-05T16:41:38;9.00;;;3.28;;
72301;SDS011;60235;52.234;5.186;2022-12-05T16:44:07;11.07;;;3.95;;
72301;SDS011;60235;52.234;5.186;2022-12-05T16:46:50;12.05;;;3.70;;
72301;SDS011;60235;52.234;5.186;2022-12-05T16:54:24;9.15;;;3.75;;
72301;SDS011;60235;52.234;5.186;2022-12-05T16:56:50;14.60;;;4.32;;
72301;SDS011;60235;52.234;5.186;2022-12-05T16:59:23;10.65;;;4.07;;
72301;SDS011;60235;52.234;5.186;2022-12-05T17:01:50;13.02;;;4.22;;
72301;SDS011;60235;52.234;5.186;2022-12-05T17:04:16;11.77;;;4.65;;
72301;SDS011;60235;52.234;5.186;2022-12-05T17:06:42;9.43;;;3.83;;
72301;SDS011;60235;52.234;5.186;2022-12-05T17:09:08;10.50;;;3.97;;
72301;SDS011;60235;52.234;5.186;2022-12-05T17:11:34;8.80;;;3.17;;
72301;SDS011;60235;52.234;5.186;2022-12-05T17:14:01;9.15;;;3.60;;
72301;SDS011;60235;52.234;5.186;2022-12-05T17:16:27;11.32;;;3.58;;
72301;SDS011;60235;52.234;5.186;2022-12-05T17:18:53;10.85;;;4.18;;
72301;SDS011;60235;52.234;5.186;2022-12-05T17:21:20;9.00;;;3.63;;
72301;SDS011;60235;52.234;5.186;2022-12-05T17:23:47;8.32;;;3.85;;
72301;SDS011;60235;52.234;5.186;2022-12-05T17:26:14;11.38;;;3.70;;
72301;SDS011;60235;52.234;5.186;2022-12-05T17:28:41;9.77;;;3.30;;
72301;SDS011;60235;52.234;5.186;2022-12-05T17:31:17;8.88;;;3.15;;
72301;SDS011;60235;52.234;5.186;2022-12-05T17:33:44;10.82;;;4.05;;
72301;SDS011;60235;52.234;5.186;2022-12-05T17:36:10;11.00;;;3.75;;
72301;SDS011;60235;52.234;5.186;2022-12-05T17:38:37;9.45;;;3.70;;
72301;SDS011;60235;52.234;5.186;2022-12-05T17:41:03;9.40;;;3.28;;
72301;SDS011;60235;52.234;5.186;2022-12-05T17:43:30;9.23;;;3.72;;